Time;durP1;ratioP1;P1;durP2;ratioP2;P2;SDS_P1;SDS_P2;PMS_P1;PMS_P2;Temp;Humidity;BMP_temperature;BMP_pressure;BME280_temperature;BME280_humidity;BME280_pressure;Samples;Min_cycle;Max_cycle;Signal;HPM_P1;HPM_P2
2022/03/17 00:00:35;;;;;;;17.33;11.63;;;;;;;8.23;65.55;99637.06;5079125;28;41801;-76
2022/03/17 00:03:02;;;;;;;19.57;11.87;;;;;;;8.23;65.77;99642.34;5111751;28;42272;-77
2022/03/17 00:05:30;;;;;;;19.67;12.03;;;;;;;8.13;65.84;99619.03;5112251;28;41912;-76
2022/03/17 00:07:58;;;;;;;17.97;10.43;;;;;;;8.23;65.77;99637.06;5094214;28;41765;-77
2022/03/17 00:10:27;;;;;;;17.83;12.13;;;;;;;8.26;65.56;99634.31;5112898;28;20226;-76
2022/03/17 00:12:56;;;;;;;17.83;11.83;;;;;;;8.28;65.71;99639.53;5111034;28;41032;-77
2022/03/17 00:15:23;;;;;;;21.67;12.03;;;;;;;8.23;65.96;99638.84;5111327;28;39123;-76
2022/03/17 00:17:52;;;;;;;17.90;12.23;;;;;;;8.26;66.01;99644.88;5128645;27;41960;-76
2022/03/17 00:20:21;;;;;;;18.67;13.13;;;;;;;8.26;65.84;99647.50;5111746;28;43981;-77
2022/03/17 00:22:49;;;;;;;18.03;11.77;;;;;;;8.32;66.09;99640.28;5111507;28;42469;-76
2022/03/17 00:25:17;;;;;;;22.70;13.97;;;;;;;8.30;65.91;99641.16;5111788;28;40084;-76
2022/03/17 00:27:45;;;;;;;24.40;13.10;;;;;;;8.30;65.87;99643.81;5128567;27;41471;-77
2022/03/17 00:30:14;;;;;;;20.57;13.27;;;;;;;8.33;66.49;99634.09;5129083;27;43647;-76
2022/03/17 00:32:41;;;;;;;20.60;13.10;;;;;;;8.33;66.67;99621.75;5112226;28;43120;-76
2022/03/17 00:37:55;;;;;;;20.70;13.10;;;;;;;8.28;66.76;99608.69;5111877;28;41716;-77
2022/03/17 00:40:23;;;;;;;24.77;15.53;;;;;;;8.34;67.02;99617.34;5111445;28;44561;-77
2022/03/17 00:42:51;;;;;;;22.30;14.73;;;;;;;8.38;66.79;99618.94;5111286;28;42005;-76
2022/03/17 00:45:20;;;;;;;22.30;14.17;;;;;;;8.43;66.62;99616.94;5111714;28;40384;-76
2022/03/17 00:47:48;;;;;;;22.73;14.23;;;;;;;8.44;67.04;99618.66;5093955;28;41255;-76
2022/03/17 00:50:15;;;;;;;26.27;14.63;;;;;;;8.42;67.18;99615.22;5111048;28;42608;-76
2022/03/17 00:52:43;;;;;;;20.63;12.83;;;;;;;8.43;67.10;99612.53;5092871;28;42365;-77
2022/03/17 00:55:10;;;;;;;19.37;13.30;;;;;;;8.47;66.53;99623.81;5111418;28;41571;-77
2022/03/17 00:57:39;;;;;;;21.87;14.10;;;;;;;8.43;66.99;99614.31;5127911;27;41446;-76
2022/03/17 01:00:08;;;;;;;23.17;14.03;;;;;;;8.43;66.43;99603.75;5108535;28;41177;-76
2022/03/17 01:02:38;;;;;;;22.90;15.70;;;;;;;8.41;66.76;99600.31;5112280;28;42529;-76
2022/03/17 01:05:06;;;;;;;23.17;14.40;;;;;;;8.45;66.57;99610.69;5111210;28;38626;-76
2022/03/17 01:07:34;;;;;;;22.37;14.03;;;;;;;8.40;66.28;99596.84;5110321;28;42596;-76
2022/03/17 01:10:02;;;;;;;23.77;14.50;;;;;;;8.48;66.65;99593.88;5110624;28;42771;-77
2022/03/17 01:12:30;;;;;;;23.73;14.83;;;;;;;8.04;66.50;99525.28;5110233;28;41287;-76
2022/03/17 01:14:58;;;;;;;21.20;14.07;;;;;;;8.49;66.30;99600.88;5111275;28;41055;-76
2022/03/17 01:17:25;;;;;;;19.00;12.90;;;;;;;8.34;66.45;99585.66;5111943;28;42619;-77
2022/03/17 01:19:54;;;;;;;22.53;14.47;;;;;;;8.48;66.63;99610.56;5112113;28;43373;-76
2022/03/17 01:22:23;;;;;;;22.57;14.10;;;;;;;8.47;66.82;99607.97;5111864;28;42229;-76
2022/03/17 01:24:51;;;;;;;20.73;13.87;;;;;;;8.49;66.61;99600.88;5093814;28;39004;-76
2022/03/17 01:27:20;;;;;;;21.80;14.20;;;;;;;8.51;66.60;99612.22;5110596;28;40471;-76
2022/03/17 01:29:48;;;;;;;23.87;14.80;;;;;;;8.52;66.33;99616.59;5110797;28;41721;-76
2022/03/17 01:32:15;;;;;;;22.13;13.90;;;;;;;8.53;66.36;99597.19;5093298;28;43068;-76
2022/03/17 01:34:43;;;;;;;22.50;14.20;;;;;;;8.52;66.38;99600.75;5110718;28;40217;-76
2022/03/17 01:37:13;;;;;;;22.20;13.93;;;;;;;8.51;66.36;99606.94;5110331;28;41124;-76
2022/03/17 01:39:40;;;;;;;23.60;14.37;;;;;;;8.47;66.01;99607.97;5093407;28;43486;-76
2022/03/17 01:42:10;;;;;;;20.47;13.60;;;;;;;8.39;66.05;99583.69;5109487;28;41551;-76
2022/03/17 01:44:39;;;;;;;21.27;13.27;;;;;;;8.24;65.74;99575.47;5078692;28;40370;-76
2022/03/17 01:50:04;;;;;;;21.90;14.17;;;;;;;8.45;66.06;99610.69;5057445;28;42935;-76
2022/03/17 01:52:33;;;;;;;22.67;13.90;;;;;;;8.49;65.97;99621.97;5109547;28;42365;-77
2022/03/17 01:55:01;;;;;;;22.97;13.87;;;;;;;8.46;65.54;99620.31;5111508;28;40186;-76
2022/03/17 01:57:28;;;;;;;20.77;14.03;;;;;;;8.45;65.63;99631.81;5110066;28;41587;-77
2022/03/17 01:59:57;;;;;;;21.13;14.17;;;;;;;8.43;65.78;99627.50;5106084;28;44367;-76
2022/03/17 02:02:25;;;;;;;24.17;14.50;;;;;;;8.43;65.51;99632.78;5090691;28;41366;-77
2022/03/17 02:04:53;;;;;;;20.93;12.73;;;;;;;8.34;65.16;99617.34;5109452;28;39105;-77
2022/03/17 02:07:21;;;;;;;18.03;12.53;;;;;;;8.40;65.22;99630.28;5109627;28;41752;-76
2022/03/17 02:09:51;;;;;;;23.30;14.77;;;;;;;8.27;65.41;99614.94;5107446;28;44483;-76
2022/03/17 02:15:06;;;;;;;18.73;12.70;;;;;;;8.36;65.05;99637.47;5092851;28;38610;-77
2022/03/17 02:17:39;;;;;;;19.13;13.23;;;;;;;8.36;65.21;99641.88;5109225;28;41417;-76
2022/03/17 02:20:09;;;;;;;19.50;12.87;;;;;;;8.37;65.18;99648.88;5087592;28;42256;-76
2022/03/17 02:22:43;;;;;;;18.30;12.67;;;;;;;8.38;64.94;99640.03;5085113;28;42181;-77
2022/03/17 02:27:59;;;;;;;25.00;14.97;;;;;;;8.39;64.71;99652.31;5090369;28;41570;-76
2022/03/17 02:30:27;;;;;;;17.13;12.13;;;;;;;8.36;64.57;99647.16;5107775;28;42693;-76
2022/03/17 02:33:00;;;;;;;24.53;14.13;;;;;;;8.37;65.14;99638.31;5105514;28;42414;-76
2022/03/17 02:35:28;;;;;;;19.50;13.13;;;;;;;8.43;64.75;99644.19;5107492;28;42161;-76
2022/03/17 02:37:58;;;;;;;21.27;14.33;;;;;;;8.45;64.73;99641.50;5107379;28;41959;-76
2022/03/17 02:40:27;;;;;;;22.17;13.70;;;;;;;8.45;64.65;99646.78;5108808;28;42171;-76
2022/03/17 02:42:57;;;;;;;20.23;14.10;;;;;;;8.45;64.59;99642.34;5108519;28;41324;-77
2022/03/17 02:45:25;;;;;;;21.83;13.80;;;;;;;8.43;64.52;99633.63;5103376;28;40749;-76
2022/03/17 02:47:53;;;;;;;19.50;13.07;;;;;;;8.42;64.58;99641.63;5108961;28;42479;-76
2022/03/17 02:50:21;;;;;;;21.50;12.93;;;;;;;8.36;64.38;99629.53;5107349;28;41943;-76
2022/03/17 02:52:48;;;;;;;18.50;12.57;;;;;;;8.41;64.42;99634.63;5107997;28;43153;-76
2022/03/17 02:55:16;;;;;;;20.80;13.23;;;;;;;8.40;64.67;99640.84;5106111;28;39709;-76
2022/03/17 02:57:46;;;;;;;21.07;13.23;;;;;;;8.40;64.49;99652.25;5109852;28;41966;-77
2022/03/17 03:00:14;;;;;;;18.60;12.90;;;;;;;8.40;64.33;99651.41;5109094;28;42856;-76
2022/03/17 03:02:43;;;;;;;19.97;12.73;;;;;;;8.40;64.22;99654.03;5102530;28;42951;-77
2022/03/17 03:05:11;;;;;;;17.87;11.53;;;;;;;8.39;64.24;99657.59;5090816;28;40459;-76
2022/03/17 03:07:38;;;;;;;17.97;11.60;;;;;;;8.39;63.84;99657.59;5089540;28;41872;-76
2022/03/17 03:10:07;;;;;;;19.63;13.00;;;;;;;8.39;64.24;99657.59;5085093;28;42116;-77
2022/03/17 03:12:35;;;;;;;26.80;14.67;;;;;;;8.37;64.94;99633.03;5108743;28;42102;-76
2022/03/17 03:15:06;;;;;;;23.03;14.63;;;;;;;8.34;65.01;99643.72;5093058;28;39092;-76
2022/03/17 03:17:34;;;;;;;21.40;14.53;;;;;;;8.32;64.82;99645.56;5113228;28;42114;-76
2022/03/17 03:20:01;;;;;;;20.80;13.87;;;;;;;8.35;64.97;99641.03;5108894;28;43413;-76
2022/03/17 03:22:36;;;;;;;20.90;13.90;;;;;;;8.24;65.20;99633.50;5111363;28;42091;-76
2022/03/17 03:25:04;;;;;;;22.30;14.07;;;;;;;8.34;65.16;99654.28;5095304;28;39595;-76
2022/03/17 03:27:32;;;;;;;22.87;14.53;;;;;;;8.35;65.49;99648.06;5110765;28;41917;-77
2022/03/17 03:30:00;;;;;;;21.27;13.30;;;;;;;8.36;65.38;99648.03;5110451;28;43181;-76
2022/03/17 03:32:29;;;;;;;22.57;14.80;;;;;;;8.37;65.37;99657.66;5094128;28;44078;-76
2022/03/17 03:34:57;;;;;;;24.43;15.07;;;;;;;8.39;65.33;99654.97;5088494;28;40684;-76
2022/03/17 03:37:23;;;;;;;22.63;14.93;;;;;;;8.39;65.20;99655.81;5112207;28;42745;-76
2022/03/17 03:39:52;;;;;;;21.30;13.77;;;;;;;8.39;65.20;99649.69;5091838;28;44525;-77
2022/03/17 03:42:21;;;;;;;21.40;14.97;;;;;;;8.32;65.64;99635.00;5111258;28;43242;-76
2022/03/17 03:44:49;;;;;;;22.93;14.70;;;;;;;8.35;65.60;99642.81;5110104;28;39989;-76
2022/03/17 03:47:17;;;;;;;24.23;16.00;;;;;;;8.43;65.25;99667.09;5111679;28;42062;-77
2022/03/17 03:49:46;;;;;;;23.50;15.60;;;;;;;8.44;65.32;99660.91;5088829;28;42356;-78
2022/03/17 03:52:15;;;;;;;24.63;16.07;;;;;;;8.28;65.17;99629.81;5108734;28;43781;-76
2022/03/17 03:54:43;;;;;;;26.10;15.97;;;;;;;8.34;65.26;99643.72;5093725;28;39153;-76
2022/03/17 03:57:11;;;;;;;23.50;15.67;;;;;;;8.44;65.43;99663.53;5109419;28;42021;-77
2022/03/17 03:59:39;;;;;;;26.70;15.73;;;;;;;8.30;65.45;99643.81;5129069;27;43759;-76
2022/03/17 04:02:08;;;;;;;26.07;15.53;;;;;;;8.43;65.15;99675.00;5110841;28;42342;-76
2022/03/17 04:04:36;;;;;;;25.00;15.50;;;;;;;8.41;65.32;99669.78;5111239;28;40136;-76
2022/03/17 04:07:08;;;;;;;24.00;14.63;;;;;;;8.43;65.13;99675.00;5094992;28;41720;-76
2022/03/17 04:09:39;;;;;;;22.57;14.37;;;;;;;8.40;65.65;99664.59;5110272;28;42884;-76
2022/03/17 04:12:09;;;;;;;21.53;14.53;;;;;;;8.40;65.44;99669.88;5110601;28;42351;-76
2022/03/17 04:14:37;;;;;;;22.60;14.70;;;;;;;8.39;65.29;99668.16;5111504;28;40465;-77
2022/03/17 04:17:05;;;;;;;29.50;16.57;;;;;;;8.34;65.43;99659.56;5094622;28;42792;-76
2022/03/17 04:19:34;;;;;;;22.00;14.60;;;;;;;8.37;65.44;99670.00;5113192;28;43319;-77
2022/03/17 04:22:02;;;;;;;25.80;17.07;;;;;;;8.22;65.26;99643.28;5110583;28;42003;-76
2022/03/17 04:24:31;;;;;;;24.23;15.27;;;;;;;8.40;65.26;99668.09;5113073;28;40189;-77
2022/03/17 04:26:58;;;;;;;22.90;14.87;;;;;;;8.41;65.11;99671.56;5110341;27;43035;-76
2022/03/17 04:29:28;;;;;;;21.80;14.37;;;;;;;8.29;65.18;99652.63;5111614;28;42624;-77
2022/03/17 04:31:55;;;;;;;25.07;15.40;;;;;;;8.44;65.05;99676.72;5111411;28;42120;-76
2022/03/17 04:34:23;;;;;;;22.07;14.27;;;;;;;8.39;64.83;99669.03;5094524;28;38942;-76
2022/03/17 04:36:50;;;;;;;23.47;15.20;;;;;;;8.41;64.83;99677.72;5112796;28;42784;-77
2022/03/17 04:39:18;;;;;;;23.90;15.70;;;;;;;8.45;64.91;99674.03;5128624;27;42512;-76
2022/03/17 04:41:48;;;;;;;27.67;16.30;;;;;;;8.47;65.18;99684.53;5128485;27;42267;-76
2022/03/17 04:44:15;;;;;;;24.73;15.63;;;;;;;8.50;64.81;99687.91;5094587;28;39036;-76
2022/03/17 04:46:43;;;;;;;24.13;16.77;;;;;;;8.47;64.87;99671.34;5112604;28;41987;-76
2022/03/17 04:49:11;;;;;;;20.97;14.17;;;;;;;8.54;64.82;99688.63;5111551;28;43868;-76
2022/03/17 04:51:39;;;;;;;23.87;15.57;;;;;;;8.55;65.03;99687.72;5109946;28;42405;-76
2022/03/17 04:54:07;;;;;;;22.10;14.87;;;;;;;8.56;65.21;99692.06;5090375;28;40408;-76
2022/03/17 04:56:35;;;;;;;24.60;16.30;;;;;;;8.56;64.93;99697.34;5091628;28;42490;-76
2022/03/17 04:59:04;;;;;;;23.20;14.60;;;;;;;8.60;64.87;99696.31;5073775;28;42784;-77
2022/03/17 05:01:31;;;;;;;25.27;15.23;;;;;;;8.62;64.78;99695.34;5073574;28;41132;-77
2022/03/17 05:03:59;;;;;;;24.77;16.93;;;;;;;8.63;64.82;99699.69;5090715;28;41344;-76
2022/03/17 05:06:27;;;;;;;24.00;15.37;;;;;;;8.65;64.69;99691.72;5090373;28;41776;-76
2022/03/17 05:08:54;;;;;;;23.47;15.53;;;;;;;8.68;64.58;99698.63;5090442;28;42939;-76
2022/03/17 05:11:22;;;;;;;23.27;15.50;;;;;;;8.69;64.76;99714.41;5110471;28;42611;-76
2022/03/17 05:13:51;;;;;;;22.13;15.50;;;;;;;8.72;64.38;99714.28;5093985;28;38997;-76
2022/03/17 05:16:20;;;;;;;20.97;14.03;;;;;;;8.76;64.27;99720.31;5110694;28;40623;-77
2022/03/17 05:18:51;;;;;;;21.80;13.87;;;;;;;8.74;64.19;99711.59;5110822;28;42919;-76
2022/03/17 05:21:20;;;;;;;23.73;16.30;;;;;;;8.79;64.23;99705.19;5110166;28;42623;-76
2022/03/17 05:23:47;;;;;;;24.17;16.17;;;;;;;8.80;64.34;99696.34;5110416;28;40225;-76
2022/03/17 05:26:15;;;;;;;25.17;16.03;;;;;;;8.81;64.54;99703.34;5093506;28;44092;-76
2022/03/17 05:28:43;;;;;;;24.03;15.90;;;;;;;8.82;64.20;99710.34;5128090;27;43056;-76
2022/03/17 05:31:10;;;;;;;20.07;13.80;;;;;;;8.83;64.21;99717.34;5093650;28;43131;-77
2022/03/17 05:33:39;;;;;;;25.00;15.57;;;;;;;8.84;64.14;99708.50;5114495;27;41788;-76
2022/03/17 05:36:07;;;;;;;20.30;14.17;;;;;;;8.87;64.01;99713.66;5111085;28;42515;-77
2022/03/17 05:38:34;;;;;;;21.73;14.70;;;;;;;8.88;64.14;99714.53;5109535;27;41772;-77
2022/03/17 05:41:03;;;;;;;21.20;14.17;;;;;;;8.90;64.07;99712.69;5111496;28;43231;-76
2022/03/17 05:43:30;;;;;;;24.00;15.50;;;;;;;8.90;64.02;99718.78;5093487;28;41137;-77
2022/03/17 05:45:58;;;;;;;21.17;13.73;;;;;;;8.91;63.68;99717.88;5110295;28;41772;-76
2022/03/17 05:48:26;;;;;;;24.23;15.10;;;;;;;8.92;63.71;99714.31;5110421;28;42798;-77
2022/03/17 05:50:55;;;;;;;23.33;15.67;;;;;;;8.89;63.70;99711.81;5126452;27;43330;-76
2022/03/17 05:53:23;;;;;;;21.97;14.77;;;;;;;8.94;63.79;99722.19;5108658;28;42020;-76
2022/03/17 05:55:50;;;;;;;18.47;13.97;;;;;;;8.87;63.72;99707.53;5106033;28;41332;-77
2022/03/17 05:58:17;;;;;;;22.40;14.43;;;;;;;8.85;63.42;99699.66;5087797;28;44003;-76
2022/03/17 06:00:48;;;;;;;22.60;14.57;;;;;;;8.98;63.44;99724.63;5095776;28;43246;-76
2022/03/17 06:03:15;;;;;;;23.57;14.83;;;;;;;8.88;63.45;99704.81;5108941;28;39988;-77
2022/03/17 06:05:50;;;;;;;21.23;13.63;;;;;;;8.99;63.50;99723.72;5082956;28;40749;-76
2022/03/17 06:08:19;;;;;;;20.13;13.37;;;;;;;8.99;63.36;99723.72;5092903;28;43762;-76
2022/03/17 06:10:47;;;;;;;22.60;14.60;;;;;;;8.95;63.32;99722.13;5088762;28;43702;-77
2022/03/17 06:13:15;;;;;;;17.63;13.17;;;;;;;9.08;63.08;99742.72;5106342;28;40251;-76
2022/03/17 06:15:44;;;;;;;22.50;14.27;;;;;;;9.12;63.12;99745.19;5110312;28;41674;-76
2022/03/17 06:18:11;;;;;;;16.13;13.63;;;;;;;9.15;63.14;99744.22;5109161;28;44318;-76
2022/03/17 06:20:39;;;;;;;20.33;14.47;;;;;;;9.17;63.24;99743.19;5088709;28;41292;-77
2022/03/17 06:23:08;;;;;;;22.57;14.93;;;;;;;9.18;63.35;99744.06;5128043;27;40825;-77
2022/03/17 06:25:37;;;;;;;25.00;15.67;;;;;;;9.22;62.87;99746.50;5131698;27;42752;-76
2022/03/17 06:28:06;;;;;;;24.13;16.07;;;;;;;9.27;63.20;99749.81;5122512;27;42755;-76
2022/03/17 06:30:35;;;;;;;21.50;15.03;;;;;;;9.29;62.82;99753.25;5092842;28;41801;-77
2022/03/17 06:33:04;;;;;;;22.20;15.10;;;;;;;9.34;62.79;99766.28;5109104;28;40295;-77
2022/03/17 06:35:32;;;;;;;21.63;15.53;;;;;;;9.39;62.54;99769.59;5107138;28;41763;-76
2022/03/17 06:38:02;;;;;;;23.17;15.27;;;;;;;9.43;62.57;99778.22;5107642;28;42916;-76
2022/03/17 06:40:31;;;;;;;20.57;14.13;;;;;;;9.49;62.45;99794.69;5108334;28;42237;-76
2022/03/17 06:43:01;;;;;;;17.80;12.20;;;;;;;9.53;62.36;99798.06;5092383;28;39776;-77
2022/03/17 06:45:29;;;;;;;17.30;12.43;;;;;;;9.60;61.96;99799.53;5091686;28;40897;-77
2022/03/17 06:47:57;;;;;;;18.87;12.47;;;;;;;9.66;61.68;99809.81;5110776;28;42793;-77
2022/03/17 06:50:26;;;;;;;20.13;13.80;;;;;;;9.70;61.76;99807.00;5112311;28;42754;-77
2022/03/17 06:52:55;;;;;;;18.13;12.23;;;;;;;9.72;61.64;99806.91;5095698;28;39587;-77
2022/03/17 06:55:22;;;;;;;18.70;12.80;;;;;;;9.66;61.54;99799.25;5112755;28;43320;-76
2022/03/17 06:57:50;;;;;;;22.63;15.70;;;;;;;9.81;61.54;99810.94;5111186;28;43781;-76
2022/03/17 07:00:21;;;;;;;19.03;13.13;;;;;;;9.85;61.59;99815.19;5114315;28;43014;-77
2022/03/17 07:02:49;;;;;;;24.47;15.83;;;;;;;9.91;61.17;99828.97;5113289;28;39601;-77
2022/03/17 07:05:16;;;;;;;20.00;13.87;;;;;;;9.94;61.24;99822.69;5112568;28;40959;-77
2022/03/17 07:07:44;;;;;;;19.07;13.67;;;;;;;10.00;61.05;99830.38;5104636;28;42432;-77
2022/03/17 07:10:15;;;;;;;20.97;14.37;;;;;;;10.04;61.00;99829.28;5111923;28;42400;-77
2022/03/17 07:12:45;;;;;;;20.63;14.43;;;;;;;10.07;60.93;99829.16;5111783;28;40493;-76
2022/03/17 07:15:13;;;;;;;19.83;13.40;;;;;;;10.13;60.63;99828.03;5112461;28;41542;-77
2022/03/17 07:17:43;;;;;;;19.93;13.70;;;;;;;10.17;60.83;99826.97;5109168;28;41707;-77
2022/03/17 07:20:13;;;;;;;22.60;14.97;;;;;;;10.17;60.68;99830.47;5112903;28;43538;-78
2022/03/17 07:22:42;;;;;;;22.60;15.07;;;;;;;10.29;60.42;99832.59;5096576;28;41647;-78
2022/03/17 07:25:11;;;;;;;22.57;14.30;;;;;;;10.32;60.29;99821.88;5122701;28;41844;-78
2022/03/17 07:27:40;;;;;;;21.00;14.87;;;;;;;10.38;60.42;99829.53;5104755;28;41672;-78
2022/03/17 07:30:09;;;;;;;20.83;14.47;;;;;;;10.31;60.01;99809.56;5105181;28;41283;-78
2022/03/17 07:32:38;;;;;;;22.87;15.57;;;;;;;10.54;60.00;99832.31;5121392;28;41341;-78
2022/03/17 07:35:09;;;;;;;20.70;15.20;;;;;;;10.60;59.74;99834.69;5120122;28;41646;-79
2022/03/17 07:37:37;;;;;;;23.20;15.93;;;;;;;10.65;59.71;99835.31;5111964;28;42447;-78
2022/03/17 07:40:05;;;;;;;20.97;13.90;;;;;;;10.73;59.89;99829.66;5112601;28;42365;-78
2022/03/17 07:42:33;;;;;;;21.33;15.20;;;;;;;10.67;59.55;99812.25;5111803;28;40795;-78
2022/03/17 07:45:19;;;;;;;20.67;14.97;;;;;;;10.78;59.75;99819.69;5110463;28;41782;-78
2022/03/17 07:48:07;;;;;;;20.27;13.90;;;;;;;10.95;59.41;99842.75;5112253;28;41803;-78
2022/03/17 07:50:36;;;;;;;22.50;15.10;;;;;;;11.01;59.31;99843.28;5113953;28;42616;-78
2022/03/17 07:53:03;;;;;;;24.77;15.57;;;;;;;10.98;58.74;99832.88;5111349;27;40330;-76
2022/03/17 07:55:31;;;;;;;20.97;14.57;;;;;;;10.97;58.91;99823.19;5111442;28;42687;-78
2022/03/17 07:58:00;;;;;;;21.90;15.60;;;;;;;11.04;58.97;99819.28;5094049;28;41874;-78
2022/03/17 08:00:28;;;;;;;20.83;15.17;;;;;;;11.24;58.56;99850.16;5112161;27;43172;-78
2022/03/17 08:02:57;;;;;;;22.77;14.63;;;;;;;11.32;58.43;99847.09;5111194;28;40338;-78
2022/03/17 08:05:25;;;;;;;22.23;14.53;;;;;;;11.36;58.34;99848.69;5112067;28;42082;-79
2022/03/17 08:07:54;;;;;;;21.30;14.47;;;;;;;11.32;58.27;99823.25;5111637;28;42678;-78
2022/03/17 08:10:22;;;;;;;21.40;15.17;;;;;;;11.56;58.18;99848.53;5112883;28;42718;-79
2022/03/17 08:12:49;;;;;;;19.77;13.73;;;;;;;11.34;58.15;99797.50;5111010;28;38977;-78
2022/03/17 08:15:18;;;;;;;22.70;16.07;;;;;;;11.77;57.57;99855.41;5112837;28;42783;-77
2022/03/17 08:17:46;;;;;;;23.13;16.33;;;;;;;11.85;57.10;99858.56;5111717;28;43754;-77
2022/03/17 08:20:13;;;;;;;20.00;14.87;;;;;;;11.98;57.26;99852.59;5090753;28;41434;-78
2022/03/17 08:22:42;;;;;;;22.17;15.60;;;;;;;12.11;56.68;99854.53;5094001;28;42503;-78
2022/03/17 08:25:11;;;;;;;23.20;16.40;;;;;;;12.18;56.41;99855.06;5111028;28;41120;-78
2022/03/17 08:27:40;;;;;;;23.10;16.67;;;;;;;12.25;55.36;99851.13;5111000;28;43739;-80
2022/03/17 08:30:08;;;;;;;21.87;15.70;;;;;;;12.40;54.95;99862.72;5111826;28;42216;-79
2022/03/17 08:32:36;;;;;;;20.60;15.83;;;;;;;12.45;54.45;99866.88;5111627;28;39196;-78
2022/03/17 08:35:05;;;;;;;20.10;15.67;;;;;;;12.62;53.98;99881.88;5111895;28;41574;-79
2022/03/17 08:37:32;;;;;;;22.00;15.40;;;;;;;12.74;53.96;99875.88;5111634;28;42696;-78
2022/03/17 08:40:00;;;;;;;22.47;16.33;;;;;;;12.63;53.36;99853.50;5093813;28;41518;-80
2022/03/17 08:42:29;;;;;;;23.47;16.60;;;;;;;12.88;53.31;99883.97;5110928;28;39510;-78
2022/03/17 08:44:57;;;;;;;25.03;17.00;;;;;;;13.04;52.35;99902.59;5112327;28;41916;-77
2022/03/17 08:50:09;;;;;;;21.27;16.03;;;;;;;13.35;52.14;99903.56;5069388;28;42457;-78
2022/03/17 08:52:37;;;;;;;22.90;17.43;;;;;;;13.49;51.85;99919.56;5093411;28;39079;-79
2022/03/17 08:55:05;;;;;;;22.60;16.23;;;;;;;13.57;51.31;99914.69;5094292;28;43037;-79
2022/03/17 08:57:34;;;;;;;23.00;16.53;;;;;;;13.71;51.50;99917.41;5093957;28;43092;-79
2022/03/17 09:00:06;;;;;;;21.80;16.50;;;;;;;13.69;51.24;99911.31;5111258;28;43020;-78
2022/03/17 09:02:34;;;;;;;22.77;16.20;;;;;;;13.85;50.21;99940.53;5110729;28;40386;-79
2022/03/17 09:05:02;;;;;;;22.57;16.47;;;;;;;13.86;49.85;99943.09;5094239;28;41906;-79
2022/03/17 09:07:30;;;;;;;23.03;17.13;;;;;;;13.93;50.49;99936.50;5112087;28;42634;-80
2022/03/17 09:09:58;;;;;;;20.00;15.23;;;;;;;14.06;50.46;99943.75;5093637;28;42721;-79
2022/03/17 09:12:30;;;;;;;20.87;15.70;;;;;;;14.16;50.02;99939.59;5092828;28;39986;-79
2022/03/17 09:14:59;;;;;;;23.33;16.50;;;;;;;14.26;50.11;99938.94;5108275;28;41770;-79
2022/03/17 09:17:26;;;;;;;23.17;16.80;;;;;;;14.28;49.76;99928.19;5110067;28;41417;-79
2022/03/17 09:19:54;;;;;;;22.97;16.90;;;;;;;14.33;48.86;99934.13;5109758;28;42490;-80
2022/03/17 09:22:21;;;;;;;21.17;17.03;;;;;;;14.43;48.94;99937.97;5093193;28;38973;-79
2022/03/17 09:24:49;;;;;;;22.30;17.53;;;;;;;14.44;49.04;99938.81;5093697;28;43414;-78
2022/03/17 09:27:17;;;;;;;24.17;17.73;;;;;;;14.37;48.59;99923.16;5109237;28;42863;-79
2022/03/17 09:29:49;;;;;;;23.23;17.23;;;;;;;14.47;48.62;99942.13;5111213;28;41110;-79
2022/03/17 09:32:20;;;;;;;24.17;17.03;;;;;;;14.51;47.94;99949.00;5111401;28;40157;-78
2022/03/17 09:34:47;;;;;;;23.53;18.17;;;;;;;14.46;47.91;99948.44;5107785;28;41754;-78
2022/03/17 09:37:17;;;;;;;24.37;16.10;;;;;;;14.54;48.05;99962.16;5109829;28;43958;-79
2022/03/17 09:39:47;;;;;;;22.67;16.70;;;;;;;14.56;47.78;99960.25;5093816;28;41048;-79
2022/03/17 09:42:17;;;;;;;21.27;16.10;;;;;;;14.60;48.09;99951.09;5093179;28;39013;-80
2022/03/17 09:44:47;;;;;;;21.27;16.23;;;;;;;14.51;47.08;99949.00;5093339;28;43209;-79
2022/03/17 09:47:19;;;;;;;20.83;16.70;;;;;;;14.60;47.68;99945.75;5109920;28;42679;-78
2022/03/17 09:49:47;;;;;;;23.33;17.00;;;;;;;14.70;47.30;99962.94;5093824;28;42798;-79
2022/03/17 09:52:17;;;;;;;20.73;16.90;;;;;;;14.70;47.08;99960.25;5109295;28;41482;-78
2022/03/17 09:54:46;;;;;;;21.23;15.63;;;;;;;14.63;47.51;99934.91;5116295;27;40684;-79
2022/03/17 09:57:16;;;;;;;22.53;17.13;;;;;;;14.80;46.73;99960.53;5123232;27;43656;-79
2022/03/17 09:59:48;;;;;;;24.37;17.77;;;;;;;14.72;46.52;99966.34;5093447;28;41451;-78
2022/03/17 10:02:18;;;;;;;22.60;17.20;;;;;;;14.68;46.80;99956.81;5110846;28;40917;-78
2022/03/17 10:04:49;;;;;;;24.37;17.47;;;;;;;14.78;46.76;99958.91;5109789;28;42943;-79
2022/03/17 10:07:18;;;;;;;22.83;16.63;;;;;;;14.88;46.88;99952.06;5109868;28;42459;-79
2022/03/17 10:09:46;;;;;;;22.40;16.40;;;;;;;14.94;46.38;99971.22;5093070;27;41158;-79
2022/03/17 10:12:16;;;;;;;24.07;18.10;;;;;;;15.03;46.11;99972.44;5109241;28;42444;-81
2022/03/17 10:14:45;;;;;;;22.30;15.90;;;;;;;15.12;46.31;99974.50;5119162;27;40704;-82
2022/03/17 10:17:31;;;;;;;22.37;16.80;;;;;;;15.19;45.66;99975.84;5123285;27;42509;-81
2022/03/17 10:20:17;;;;;;;20.93;16.53;;;;;;;15.32;45.90;99982.13;5095766;28;42023;-82
2022/03/17 10:22:47;;;;;;;23.00;16.50;;;;;;;15.38;45.25;99987.06;5096338;28;40520;-84
2022/03/17 10:25:17;;;;;;;22.53;17.47;;;;;;;15.52;46.01;99986.16;5111362;28;40698;-83
2022/03/17 10:27:46;;;;;;;20.83;16.13;;;;;;;15.60;45.13;99978.53;5092607;28;41700;-86
2022/03/17 10:30:14;;;;;;;20.97;17.30;;;;;;;15.76;45.08;99992.63;5107734;28;42500;-83
2022/03/17 10:32:55;;;;;;;21.43;16.43;;;;;;;15.89;44.95;99987.31;5092693;28;40490;-83
2022/03/17 10:35:31;;;;;;;21.30;16.60;;;;;;;15.95;44.12;99997.59;5093472;28;40899;-81
2022/03/17 10:37:58;;;;;;;25.20;18.23;;;;;;;16.10;44.02;100011.75;5109710;28;43734;-83
2022/03/17 10:40:31;;;;;;;24.33;18.60;;;;;;;16.14;43.65;100008.78;5110105;28;42248;-81
2022/03/17 10:43:14;;;;;;;21.70;16.80;;;;;;;16.14;43.89;100006.09;5108776;28;39212;-82
2022/03/17 10:45:42;;;;;;;24.43;17.93;;;;;;;16.25;43.40;100013.41;5089504;28;43036;-82
2022/03/17 10:48:11;;;;;;;21.17;16.17;;;;;;;16.41;43.45;100023.91;5092873;28;43939;-82
2022/03/17 10:50:42;;;;;;;22.60;17.63;;;;;;;16.60;42.98;100020.81;5108127;28;42055;-80
2022/03/17 10:53:10;;;;;;;24.03;17.70;;;;;;;16.92;43.43;100032.03;5109873;28;41387;-81
2022/03/17 10:55:39;;;;;;;24.00;18.30;;;;;;;17.11;42.18;100043.13;5104630;28;40763;-81
2022/03/17 10:58:15;;;;;;;23.57;19.13;;;;;;;17.24;41.83;100043.97;5108703;28;41757;-82
2022/03/17 11:00:47;;;;;;;23.90;17.47;;;;;;;17.30;41.79;100051.59;5092353;28;42709;-81
2022/03/17 11:03:16;;;;;;;23.53;18.00;;;;;;;17.29;40.98;100046.34;5093005;28;40408;-82
2022/03/17 11:05:46;;;;;;;23.37;18.27;;;;;;;17.37;40.54;100049.31;5110339;28;42345;-81
2022/03/17 11:08:14;;;;;;;22.93;17.40;;;;;;;17.48;41.13;100052.94;5092488;28;43516;-82
2022/03/17 11:10:42;;;;;;;22.33;17.40;;;;;;;17.56;41.21;100053.22;5109330;28;42369;-82
2022/03/17 11:13:23;;;;;;;22.43;16.80;;;;;;;17.59;41.06;100028.91;5111094;28;40819;-81
2022/03/17 11:15:58;;;;;;;22.13;16.63;;;;;;;17.79;40.88;100051.63;5106307;28;42628;-80
2022/03/17 11:18:26;;;;;;;22.17;16.97;;;;;;;17.96;41.31;100050.34;5106745;28;42487;-81
2022/03/17 11:21:13;;;;;;;19.67;15.87;;;;;;;18.14;41.31;100057.06;5091913;28;43097;-80
2022/03/17 11:23:55;;;;;;;23.50;18.57;;;;;;;18.30;40.93;100052.22;5106735;28;40951;-82
2022/03/17 11:26:25;;;;;;;22.97;17.30;;;;;;;18.34;40.62;100041.28;5108992;28;42103;-81
2022/03/17 11:29:02;;;;;;;23.77;17.53;;;;;;;18.40;39.77;100036.31;5110640;28;43528;-80
2022/03/17 11:31:30;;;;;;;18.93;15.97;;;;;;;18.62;39.33;100057.03;5092704;28;42867;-82
2022/03/17 11:33:59;;;;;;;21.20;17.87;;;;;;;18.79;39.08;100056.56;5091521;28;40511;-81
2022/03/17 11:36:28;;;;;;;24.50;17.83;;;;;;;18.98;39.20;100059.53;5112451;28;42154;-84
2022/03/17 11:39:19;;;;;;;21.63;17.33;;;;;;;19.27;38.49;100059.09;5112324;28;42116;-81
2022/03/17 11:41:48;;;;;;;22.43;18.17;;;;;;;19.48;37.67;100056.50;5095758;28;42405;-83
2022/03/17 11:44:32;;;;;;;21.93;17.83;;;;;;;19.92;37.46;100061.00;5095846;28;40103;-85